Time;durP1;ratioP1;P1;durP2;ratioP2;P2;SDS_P1;SDS_P2;PMS_P1;PMS_P2;Temp;Humidity;BMP_temperature;BMP_pressure;BME280_temperature;BME280_humidity;BME280_pressure;Samples;Min_cycle;Max_cycle;Signal;HPM_P1;HPM_P2
2023/05/20 00:01:36;;;;;;;;;;;;;;;10.82;70.38;102703.15;107340;1253;73128;-89
2023/05/20 00:04:16;;;;;;;;;;;;;;;10.82;70.53;102698.42;107554;1254;67147;-93
2023/05/20 00:07:17;;;;;;;;;;;;;;;10.82;70.45;102698.59;107238;1254;124747;-93
2023/05/20 00:11:11;;;;;;;;;;;;;;;10.84;70.41;102694.98;107209;1254;125242;-91
2023/05/20 00:14:20;;;;;;;;;;;;;;;10.83;70.32;102697.76;107357;1254;61337;-90
2023/05/20 00:17:05;;;;;;;;;;;;;;;10.82;70.40;102693.66;107283;1256;124811;-86
2023/05/20 00:19:38;;;;;;;;;;;;;;;10.84;70.43;102690.27;107354;1254;65893;-87
2023/05/20 00:22:06;;;;;;;;;;;;;;;10.85;70.41;102690.14;107678;1254;71382;-88
2023/05/20 00:24:37;;;;;;;;;;;;;;;10.84;70.27;102688.84;107491;1260;62386;-87
2023/05/20 00:27:04;;;;;;;;;;;;;;;10.81;70.32;102690.46;107544;1256;61269;-87
2023/05/20 00:29:38;;;;;;;;;;;;;;;10.78;70.29;102691.71;107405;1254;74724;-88
2023/05/20 00:32:20;;;;;;;;;;;;;;;10.75;70.29;102692.77;107748;1259;65807;-89
2023/05/20 00:35:06;;;;;;;;;;;;;;;10.72;70.29;102692.75;107269;1254;72649;-89
2023/05/20 00:37:33;;;;;;;;;;;;;;;10.69;70.24;102688.06;107243;1254;59957;-87
2023/05/20 00:40:02;;;;;;;;;;;;;;;10.69;70.30;102690.48;107589;1254;60609;-87
2023/05/20 00:42:36;;;;;;;;;;;;;;;10.69;70.31;102688.39;107342;1255;75053;-88
2023/05/20 00:45:03;;;;;;;;;;;;;;;10.68;70.28;102688.02;107359;1254;65733;-88
2023/05/20 00:48:06;;;;;;;;;;;;;;;10.69;70.27;102686.50;107140;1254;71785;-92
2023/05/20 00:50:34;;;;;;;;;;;;;;;10.71;70.20;102683.77;107304;1254;61301;-90
2023/05/20 00:53:03;;;;;;;;;;;;;;;10.73;70.24;102680.36;107120;1254;124255;-90
2023/05/20 00:55:49;;;;;;;;;;;;;;;10.73;70.05;102678.09;107295;1254;74727;-89
2023/05/20 00:58:22;;;;;;;;;;;;;;;10.73;70.09;102678.77;107346;1257;67135;-89
2023/05/20 01:00:49;;;;;;;;;;;;;;;10.73;70.02;102679.29;107362;1254;124029;-89
2023/05/20 01:03:23;;;;;;;;;;;;;;;10.74;70.05;102682.37;107467;1257;61222;-89
2023/05/20 01:06:00;;;;;;;;;;;;;;;10.75;70.01;102680.10;107251;1256;125789;-88
2023/05/20 01:08:28;;;;;;;;;;;;;;;10.70;69.92;102681.27;107427;1254;75062;-88
2023/05/20 01:11:07;;;;;;;;;;;;;;;10.70;69.98;102676.33;107014;1256;125103;-89
2023/05/20 01:13:44;;;;;;;;;;;;;;;10.70;69.93;102675.29;107227;1257;72767;-89
2023/05/20 01:16:17;;;;;;;;;;;;;;;10.71;70.05;102677.10;107580;1260;62315;-88
2023/05/20 01:18:47;;;;;;;;;;;;;;;10.73;69.90;102670.70;107595;1256;124890;-89
2023/05/20 01:21:23;;;;;;;;;;;;;;;10.76;69.88;102669.10;107290;1256;74703;-90
2023/05/20 01:23:55;;;;;;;;;;;;;;;10.78;69.86;102672.23;107158;1257;125432;-87
2023/05/20 01:26:25;;;;;;;;;;;;;;;10.79;69.76;102670.70;107368;1259;72437;-86
2023/05/20 01:28:52;;;;;;;;;;;;;;;10.81;69.62;102671.45;107240;1257;124709;-86
2023/05/20 01:31:26;;;;;;;;;;;;;;;10.81;69.57;102672.73;107608;1256;59957;-86
2023/05/20 01:33:57;;;;;;;;;;;;;;;10.82;69.57;102669.23;107561;1255;74757;-90
2023/05/20 01:36:38;;;;;;;;;;;;;;;10.82;69.43;102668.20;106984;1262;124441;-90
2023/05/20 01:39:07;;;;;;;;;;;;;;;10.82;69.40;102667.84;107097;1256;71407;-90
2023/05/20 01:41:34;;;;;;;;;;;;;;;10.82;69.33;102666.64;107123;1257;124710;-89
2023/05/20 01:44:01;;;;;;;;;;;;;;;10.82;69.30;102663.80;107295;1257;61170;-87
2023/05/20 01:46:35;;;;;;;;;;;;;;;10.80;69.24;102661.60;107156;1256;74675;-87
2023/05/20 01:49:03;;;;;;;;;;;;;;;10.78;69.32;102659.41;107182;1256;124562;-87
2023/05/20 01:55:03;;;;;;;;;;;;;;;10.81;69.25;102649.85;106645;1263;125272;-92
2023/05/20 01:57:36;;;;;;;;;;;;;;;10.82;69.21;102647.13;106777;1262;59381;-91
2023/05/20 02:00:05;;;;;;;;;;;;;;;10.83;69.22;102645.08;106681;1262;125067;-90
2023/05/20 02:02:33;;;;;;;;;;;;;;;10.84;69.05;102642.67;106926;1263;67104;-89
2023/05/20 02:05:01;;;;;;;;;;;;;;;10.85;69.08;102643.08;106844;1264;124247;-89
2023/05/20 02:07:28;;;;;;;;;;;;;;;10.87;69.07;102644.27;106688;1262;61274;-89
2023/05/20 02:09:56;;;;;;;;;;;;;;;10.87;69.01;102643.86;106632;1265;61229;-89
2023/05/20 02:12:33;;;;;;;;;;;;;;;10.84;69.01;102644.25;106706;1264;124078;-89
2023/05/20 02:15:22;;;;;;;;;;;;;;;10.82;68.99;102646.30;106609;1270;66762;-89
2023/05/20 02:17:57;;;;;;;;;;;;;;;10.82;69.14;102645.05;106618;1263;124474;-89
2023/05/20 02:20:27;;;;;;;;;;;;;;;10.82;69.23;102639.95;106739;1261;59987;-89
2023/05/20 02:23:16;;;;;;;;;;;;;;;10.83;69.20;102640.69;107083;1263;60185;-91
2023/05/20 02:25:51;;;;;;;;;;;;;;;10.82;69.21;102639.61;107128;1263;74968;-89
2023/05/20 02:31:27;;;;;;;;;;;;;;;10.82;69.27;102648.04;107158;1254;71872;-92
2023/05/20 02:33:54;;;;;;;;;;;;;;;10.83;69.35;102647.02;107250;1257;62182;-91
2023/05/20 02:36:35;;;;;;;;;;;;;;;10.86;69.38;102645.27;107411;1255;59998;-92
2023/05/20 02:39:12;;;;;;;;;;;;;;;10.90;69.38;102638.77;107087;1254;75424;-92
2023/05/20 02:41:58;;;;;;;;;;;;;;;10.94;69.31;102634.92;107281;1258;65701;-91
2023/05/20 02:44:32;;;;;;;;;;;;;;;10.97;69.18;102634.56;107300;1255;72504;-89
2023/05/20 02:47:01;;;;;;;;;;;;;;;10.98;69.21;102634.30;107389;1256;61299;-88
2023/05/20 02:49:47;;;;;;;;;;;;;;;11.01;69.27;102636.75;107424;1255;61250;-89
2023/05/20 02:52:15;;;;;;;;;;;;;;;11.03;69.24;102641.58;107367;1259;73420;-89
2023/05/20 02:54:51;;;;;;;;;;;;;;;11.04;69.25;102639.16;107467;1254;124629;-88
2023/05/20 02:57:38;;;;;;;;;;;;;;;11.03;69.15;102635.59;107315;1254;71530;-89
2023/05/20 03:00:15;;;;;;;;;;;;;;;11.02;69.24;102639.80;107136;1256;124783;-89
2023/05/20 03:02:42;;;;;;;;;;;;;;;11.01;69.19;102640.78;107310;1254;60686;-90
2023/05/20 03:05:11;;;;;;;;;;;;;;;11.01;69.28;102638.66;107363;1259;125041;-90
2023/05/20 03:07:51;;;;;;;;;;;;;;;11.01;69.24;102637.61;107441;1256;66683;-90
2023/05/20 03:10:19;;;;;;;;;;;;;;;11.01;69.34;102633.58;107398;1254;70752;-89
2023/05/20 03:13:00;;;;;;;;;;;;;;;11.02;69.16;102633.80;107328;1254;124949;-88
2023/05/20 03:15:45;;;;;;;;;;;;;;;11.02;69.21;102633.79;107358;1254;61198;-89
2023/05/20 03:18:14;;;;;;;;;;;;;;;11.03;69.32;102632.79;107262;1254;124530;-88
2023/05/20 03:20:42;;;;;;;;;;;;;;;11.05;69.23;102635.70;107308;1260;65911;-88
2023/05/20 03:23:09;;;;;;;;;;;;;;;11.05;69.14;102632.92;107257;1254;72714;-87
2023/05/20 03:28:29;;;;;;;;;;;;;;;11.07;69.23;102629.88;107566;1254;61250;-87
2023/05/20 03:31:15;;;;;;;;;;;;;;;11.10;69.20;102634.38;107347;1256;75313;-87
2023/05/20 03:33:49;;;;;;;;;;;;;;;11.12;69.18;102634.33;107446;1260;65717;-87
2023/05/20 03:36:17;;;;;;;;;;;;;;;11.14;69.20;102632.66;107447;1259;71470;-88
2023/05/20 03:38:44;;;;;;;;;;;;;;;11.15;69.17;102633.77;107248;1255;61388;-86
2023/05/20 03:41:12;;;;;;;;;;;;;;;11.18;69.13;102637.80;107420;1255;60459;-86
2023/05/20 03:43:39;;;;;;;;;;;;;;;11.21;69.10;102637.83;107622;1254;74757;-85
2023/05/20 03:46:06;;;;;;;;;;;;;;;11.26;69.04;102638.94;107594;1254;67132;-86
2023/05/20 03:48:34;;;;;;;;;;;;;;;11.31;68.96;102643.59;107239;1257;72402;-86
2023/05/20 03:51:08;;;;;;;;;;;;;;;11.36;68.87;102642.79;107038;1254;60896;-87
2023/05/20 03:53:35;;;;;;;;;;;;;;;11.40;68.83;102643.89;107344;1255;59977;-87
2023/05/20 03:56:09;;;;;;;;;;;;;;;11.44;68.70;102645.31;107679;1260;74904;-89
2023/05/20 03:58:37;;;;;;;;;;;;;;;11.46;68.70;102644.90;107516;1255;67123;-88
2023/05/20 04:01:06;;;;;;;;;;;;;;;11.52;68.71;102646.07;107366;1254;124581;-89
2023/05/20 04:03:40;;;;;;;;;;;;;;;11.57;68.73;102645.64;107419;1253;60101;-89
2023/05/20 04:06:08;;;;;;;;;;;;;;;11.62;68.71;102647.98;107298;1254;124504;-89
2023/05/20 04:08:36;;;;;;;;;;;;;;;11.66;68.57;102646.08;107176;1258;73656;-91
2023/05/20 04:11:04;;;;;;;;;;;;;;;11.70;68.67;102644.52;107265;1256;65528;-88
2023/05/20 04:13:38;;;;;;;;;;;;;;;11.74;68.64;102643.33;107215;1253;124927;-87
2023/05/20 04:16:09;;;;;;;;;;;;;;;11.77;68.54;102640.65;107211;1257;60022;-88
2023/05/20 04:18:37;;;;;;;;;;;;;;;11.79;68.52;102643.08;107322;1254;124802;-88
2023/05/20 04:21:04;;;;;;;;;;;;;;;11.85;68.62;102643.54;107531;1257;73352;-88
2023/05/20 04:23:37;;;;;;;;;;;;;;;11.93;68.53;102644.84;107070;1261;125640;-89
2023/05/20 04:26:11;;;;;;;;;;;;;;;11.98;68.55;102650.70;107249;1254;72949;-87
2023/05/20 04:28:40;;;;;;;;;;;;;;;12.03;68.49;102649.02;107241;1255;60916;-87
2023/05/20 04:31:10;;;;;;;;;;;;;;;12.05;68.46;102653.70;107395;1254;125446;-85
2023/05/20 04:33:39;;;;;;;;;;;;;;;12.08;68.35;102646.27;107554;1260;75210;-85
2023/05/20 04:36:18;;;;;;;;;;;;;;;12.12;68.26;102648.23;107260;1255;124508;-85
2023/05/20 04:38:47;;;;;;;;;;;;;;;12.17;68.35;102645.30;107280;1254;73210;-86
2023/05/20 04:41:17;;;;;;;;;;;;;;;12.23;68.21;102640.69;107633;1258;62162;-86
2023/05/20 04:43:50;;;;;;;;;;;;;;;12.28;68.29;102641.09;107468;1257;124554;-85
2023/05/20 04:46:17;;;;;;;;;;;;;;;12.34;68.18;102639.63;107681;1254;73206;-85
2023/05/20 04:49:03;;;;;;;;;;;;;;;12.38;68.06;102641.55;107753;1255;124155;-86
2023/05/20 04:51:30;;;;;;;;;;;;;;;12.42;68.09;102641.07;107400;1257;71404;-84
2023/05/20 04:53:57;;;;;;;;;;;;;;;12.43;68.00;102640.40;107515;1256;124849;-83
2023/05/20 04:56:24;;;;;;;;;;;;;;;12.46;68.12;102642.66;108957;1254;60089;-83
2023/05/20 04:58:51;;;;;;;;;;;;;;;12.50;67.98;102644.23;109108;1254;75225;-83
2023/05/20 05:01:18;;;;;;;;;;;;;;;12.53;67.96;102644.77;108518;1257;124908;-83
2023/05/20 05:03:47;;;;;;;;;;;;;;;12.58;68.03;102649.77;107949;1260;71367;-82
2023/05/20 05:06:16;;;;;;;;;;;;;;;12.68;68.07;102648.80;107727;1256;125659;-84
2023/05/20 05:08:42;;;;;;;;;;;;;;;12.79;68.04;102653.19;107504;1254;61136;-85
2023/05/20 05:11:12;;;;;;;;;;;;;;;12.89;67.93;102657.52;107391;1257;73462;-87
2023/05/20 05:13:39;;;;;;;;;;;;;;;12.98;67.89;102658.64;107340;1254;124275;-85
2023/05/20 05:16:07;;;;;;;;;;;;;;;13.07;67.75;102657.80;107797;1254;71427;-83
2023/05/20 05:18:34;;;;;;;;;;;;;;;13.10;67.63;102656.36;107916;1257;124685;-83
2023/05/20 05:21:02;;;;;;;;;;;;;;;13.12;67.44;102655.58;108984;1257;60679;-86
2023/05/20 05:23:31;;;;;;;;;;;;;;;13.12;67.42;102658.76;108863;1257;124784;-84
2023/05/20 05:25:58;;;;;;;;;;;;;;;13.11;67.35;102654.63;107849;1254;65813;-83
2023/05/20 05:28:26;;;;;;;;;;;;;;;13.08;67.33;102656.77;107796;1257;71660;-84
2023/05/20 05:30:55;;;;;;;;;;;;;;;13.05;67.29;102655.06;107751;1254;124253;-85
2023/05/20 05:33:24;;;;;;;;;;;;;;;12.97;67.26;102652.23;107640;1254;61516;-86
2023/05/20 05:35:51;;;;;;;;;;;;;;;12.92;67.30;102651.83;107621;1254;125037;-85
2023/05/20 05:38:19;;;;;;;;;;;;;;;12.87;67.36;102649.31;107890;1260;67920;-84
2023/05/20 05:40:47;;;;;;;;;;;;;;;12.88;67.60;102650.92;108004;1254;72934;-85
2023/05/20 05:43:15;;;;;;;;;;;;;;;12.88;67.58;102653.77;107339;1257;125554;-87
2023/05/20 05:45:42;;;;;;;;;;;;;;;12.87;67.60;102653.54;107691;1257;60486;-86
2023/05/20 05:48:22;;;;;;;;;;;;;;;12.91;67.79;102654.41;107662;1254;124702;-93
2023/05/20 05:50:49;;;;;;;;;;;;;;;12.90;67.74;102657.73;107795;1258;66933;-91
2023/05/20 05:53:31;;;;;;;;;;;;;;;12.87;67.71;102655.33;107761;1256;72420;-91
2023/05/20 05:56:04;;;;;;;;;;;;;;;12.89;67.89;102655.73;107511;1258;59243;-88
2023/05/20 05:58:40;;;;;;;;;;;;;;;12.96;68.12;102653.26;107487;1256;61243;-87
2023/05/20 06:01:08;;;;;;;;;;;;;;;12.99;68.02;102656.23;107421;1260;124782;-85
2023/05/20 06:03:42;;;;;;;;;;;;;;;13.06;68.17;102650.51;107532;1257;67546;-88
2023/05/20 06:06:12;;;;;;;;;;;;;;;13.11;68.01;102648.66;107551;1257;124383;-85
2023/05/20 06:08:38;;;;;;;;;;;;;;;13.29;68.28;102649.26;107575;1259;61234;-87
2023/05/20 06:11:05;;;;;;;;;;;;;;;13.51;68.23;102645.33;107456;1254;60460;-87
2023/05/20 06:13:41;;;;;;;;;;;;;;;13.76;68.20;102643.92;107593;1254;125369;-86
2023/05/20 06:16:12;;;;;;;;;;;;;;;14.05;67.88;102638.77;107778;1254;67557;-86
2023/05/20 06:18:39;;;;;;;;;;;;;;;14.18;67.41;102640.18;107443;1254;125401;-86
2023/05/20 06:21:06;;;;;;;;;;;;;;;14.23;67.12;102642.30;107685;1257;60169;-84
2023/05/20 06:23:33;;;;;;;;;;;;;;;14.34;67.16;102645.40;107601;1254;124842;-84
2023/05/20 06:26:00;;;;;;;;;;;;;;;14.52;67.02;102643.10;107686;1260;74493;-87
2023/05/20 06:28:28;;;;;;;;;;;;;;;14.63;66.66;102642.67;107719;1254;65754;-83
2023/05/20 06:30:55;;;;;;;;;;;;;;;14.65;66.42;102642.42;107426;1254;124598;-84
2023/05/20 06:33:26;;;;;;;;;;;;;;;14.64;66.33;102640.44;107558;1254;60859;-84
2023/05/20 06:35:56;;;;;;;;;;;;;;;14.70;66.26;102643.83;107651;1254;124612;-84
2023/05/20 06:38:22;;;;;;;;;;;;;;;14.86;66.29;102640.02;107557;1257;75266;-83
2023/05/20 06:40:50;;;;;;;;;;;;;;;15.05;66.12;102641.42;107918;1256;67018;-84
2023/05/20 06:43:17;;;;;;;;;;;;;;;15.22;66.01;102637.65;107634;1254;124187;-86
2023/05/20 06:45:44;;;;;;;;;;;;;;;15.52;65.89;102636.37;107677;1254;60813;-85
2023/05/20 06:48:11;;;;;;;;;;;;;;;15.76;65.66;102640.23;107440;1254;125051;-85
2023/05/20 06:50:39;;;;;;;;;;;;;;;15.96;65.13;102644.44;107776;1254;75252;-86
2023/05/20 06:53:07;;;;;;;;;;;;;;;16.06;64.77;102645.50;107697;1254;65802;-85
2023/05/20 06:55:34;;;;;;;;;;;;;;;16.11;64.43;102645.85;107723;1257;124748;-82
2023/05/20 06:58:01;;;;;;;;;;;;;;;16.11;64.06;102642.10;107535;1257;61286;-82
2023/05/20 07:00:28;;;;;;;;;;;;;;;16.04;63.85;102643.84;107659;1254;124243;-82
2023/05/20 07:02:55;;;;;;;;;;;;;;;16.08;64.01;102642.19;107608;1256;73225;-85
2023/05/20 07:05:24;;;;;;;;;;;;;;;16.20;63.77;102640.98;107558;1257;67222;-85
2023/05/20 07:07:53;;;;;;;;;;;;;;;16.29;63.87;102640.40;108023;1254;75615;-85
2023/05/20 07:10:22;;;;;;;;;;;;;;;16.47;63.91;102632.42;107418;1257;59979;-85
2023/05/20 07:13:02;;;;;;;;;;;;;;;16.69;63.50;102629.56;107528;1254;124617;-87
2023/05/20 07:15:30;;;;;;;;;;;;;;;16.82;63.04;102628.00;107399;1262;72403;-84
2023/05/20 07:17:58;;;;;;;;;;;;;;;16.80;62.65;102621.36;107747;1256;124532;-85
2023/05/20 07:20:25;;;;;;;;;;;;;;;16.92;63.00;102622.80;107795;1254;72656;-81
2023/05/20 07:22:52;;;;;;;;;;;;;;;17.12;62.57;102621.77;107838;1257;61136;-90
2023/05/20 07:25:21;;;;;;;;;;;;;;;17.12;62.01;102624.25;107290;1257;124306;-86
2023/05/20 07:27:49;;;;;;;;;;;;;;;16.97;61.85;102620.29;107458;1254;75021;-86
2023/05/20 07:30:16;;;;;;;;;;;;;;;16.95;61.99;102618.11;107492;1254;124133;-82
2023/05/20 07:32:43;;;;;;;;;;;;;;;17.01;62.21;102616.31;107965;1257;71403;-80
2023/05/20 07:35:11;;;;;;;;;;;;;;;17.18;62.12;102615.05;107875;1254;61253;-81
2023/05/20 07:37:39;;;;;;;;;;;;;;;17.27;61.82;102612.96;107721;1257;124812;-86
2023/05/20 07:40:06;;;;;;;;;;;;;;;17.29;61.61;102611.08;107807;1257;74632;-79
2023/05/20 07:42:34;;;;;;;;;;;;;;;17.47;61.77;102609.77;107610;1254;125277;-80
2023/05/20 07:45:01;;;;;;;;;;;;;;;17.74;61.25;102604.59;107794;1257;71391;-81
2023/05/20 07:47:27;;;;;;;;;;;;;;;17.66;60.54;102600.50;107556;1256;125217;-82
2023/05/20 07:49:56;;;;;;;;;;;;;;;17.72;61.05;102601.72;107839;1254;60550;-80
2023/05/20 07:52:23;;;;;;;;;;;;;;;17.87;60.50;102604.96;108178;1254;73522;-81
2023/05/20 07:54:50;;;;;;;;;;;;;;;17.78;59.97;102604.55;107706;1259;124470;-80
2023/05/20 07:57:16;;;;;;;;;;;;;;;17.85;60.26;102602.04;107822;1256;73175;-81
2023/05/20 07:59:43;;;;;;;;;;;;;;;18.15;60.49;102600.66;107684;1255;124703;-81
2023/05/20 08:02:10;;;;;;;;;;;;;;;18.54;60.26;102602.95;107956;1254;59563;-81
2023/05/20 08:04:37;;;;;;;;;;;;;;;18.60;59.23;102600.23;107684;1254;74412;-80
2023/05/20 08:07:04;;;;;;;;;;;;;;;18.45;58.79;102604.19;107794;1254;124822;-80
2023/05/20 08:09:32;;;;;;;;;;;;;;;18.30;58.89;102598.87;107739;1260;73059;-82
2023/05/20 08:11:59;;;;;;;;;;;;;;;18.31;59.05;102593.02;107875;1254;124432;-81
2023/05/20 08:14:26;;;;;;;;;;;;;;;18.46;59.13;102595.65;107986;1254;59588;-80
2023/05/20 08:16:53;;;;;;;;;;;;;;;18.64;58.83;102594.44;108112;1254;75282;-82
2023/05/20 08:19:21;;;;;;;;;;;;;;;18.65;58.23;102595.34;107732;1256;124273;-79
2023/05/20 08:21:48;;;;;;;;;;;;;;;18.53;57.97;102592.42;108029;1254;71421;-81
2023/05/20 08:24:15;;;;;;;;;;;;;;;18.56;58.12;102593.20;107927;1257;124725;-81
2023/05/20 08:26:42;;;;;;;;;;;;;;;18.61;57.97;102597.40;108024;1260;59517;-81
2023/05/20 08:29:09;;;;;;;;;;;;;;;18.58;57.62;102594.83;108129;1254;74711;-81
2023/05/20 08:31:36;;;;;;;;;;;;;;;18.53;57.46;102589.77;109018;1254;124186;-83
2023/05/20 08:34:03;;;;;;;;;;;;;;;18.54;57.50;102594.77;108930;1254;73181;-83
2023/05/20 08:36:30;;;;;;;;;;;;;;;18.57;57.61;102591.80;107874;1254;124295;-83
2023/05/20 08:38:57;;;;;;;;;;;;;;;18.71;57.50;102588.36;107973;1254;60104;-80
2023/05/20 08:41:24;;;;;;;;;;;;;;;18.76;57.05;102590.77;107548;1254;74472;-81
2023/05/20 08:43:51;;;;;;;;;;;;;;;18.59;56.57;102593.98;107481;1254;67941;-80
2023/05/20 08:46:18;;;;;;;;;;;;;;;18.51;56.73;102592.20;107686;1257;70395;-80
2023/05/20 08:48:45;;;;;;;;;;;;;;;18.51;56.71;102587.59;107827;1256;125080;-80
2023/05/20 08:51:12;;;;;;;;;;;;;;;18.57;56.84;102585.41;107796;1254;60857;-83
2023/05/20 08:53:39;;;;;;;;;;;;;;;18.63;56.80;102583.74;107738;1257;125069;-80
2023/05/20 08:56:07;;;;;;;;;;;;;;;18.75;56.59;102582.40;107622;1259;67173;-81
2023/05/20 08:58:36;;;;;;;;;;;;;;;18.74;56.21;102583.25;107721;1254;72478;-83
2023/05/20 09:01:03;;;;;;;;;;;;;;;18.78;56.02;102581.39;107774;1254;124257;-83
2023/05/20 09:03:31;;;;;;;;;;;;;;;18.81;55.62;102583.27;107971;1255;60284;-82
2023/05/20 09:06:05;;;;;;;;;;;;;;;18.73;55.49;102588.76;107648;1260;124614;-83
2023/05/20 09:08:32;;;;;;;;;;;;;;;18.55;55.31;102589.61;107863;1256;65491;-83
2023/05/20 09:10:59;;;;;;;;;;;;;;;18.40;55.55;102589.50;107561;1254;73217;-83
2023/05/20 09:13:26;;;;;;;;;;;;;;;18.39;55.63;102589.83;107219;1257;124165;-83
2023/05/20 09:15:53;;;;;;;;;;;;;;;18.44;55.55;102589.56;107782;1254;62124;-82
2023/05/20 09:18:21;;;;;;;;;;;;;;;18.45;55.53;102588.73;107783;1254;74721;-83
2023/05/20 09:20:49;;;;;;;;;;;;;;;18.44;55.57;102586.38;107797;1254;67043;-84
2023/05/20 09:23:24;;;;;;;;;;;;;;;18.52;55.55;102585.83;107615;1256;71506;-84
2023/05/20 09:25:51;;;;;;;;;;;;;;;18.63;55.44;102587.12;107629;1255;124903;-83
2023/05/20 09:28:26;;;;;;;;;;;;;;;18.61;55.12;102586.20;107602;1255;60622;-84
2023/05/20 09:30:59;;;;;;;;;;;;;;;18.57;55.27;102587.35;107724;1254;124159;-85
2023/05/20 09:33:27;;;;;;;;;;;;;;;18.61;55.27;102585.14;107996;1254;66832;-86
2023/05/20 09:36:00;;;;;;;;;;;;;;;18.57;55.14;102587.18;107841;1258;124398;-85
2023/05/20 09:38:34;;;;;;;;;;;;;;;18.54;55.22;102581.44;107918;1254;59408;-90
2023/05/20 09:41:14;;;;;;;;;;;;;;;18.54;55.25;102587.11;107983;1255;61359;-84
2023/05/20 09:43:41;;;;;;;;;;;;;;;18.37;55.25;102580.73;107563;1260;124217;-85
2023/05/20 09:46:08;;;;;;;;;;;;;;;18.35;55.47;102583.50;107687;1256;66771;-86
2023/05/20 09:48:36;;;;;;;;;;;;;;;18.37;55.42;102583.19;107457;1254;124277;-85
2023/05/20 09:51:04;;;;;;;;;;;;;;;18.28;55.10;102587.25;107453;1256;61286;-85
2023/05/20 09:53:31;;;;;;;;;;;;;;;18.12;55.27;102582.64;107458;1254;124402;-84
2023/05/20 09:56:12;;;;;;;;;;;;;;;18.16;55.60;102582.73;107589;1254;74420;-85
2023/05/20 09:58:39;;;;;;;;;;;;;;;18.23;55.58;102580.77;107751;1254;65892;-83
2023/05/20 10:01:06;;;;;;;;;;;;;;;18.12;55.32;102581.04;107446;1254;124840;-84
2023/05/20 10:03:35;;;;;;;;;;;;;;;17.99;55.47;102582.88;107595;1254;61280;-85
2023/05/20 10:06:21;;;;;;;;;;;;;;;17.81;55.41;102585.42;107424;1256;124637;-84
2023/05/20 10:09:01;;;;;;;;;;;;;;;17.46;55.53;102585.61;107733;1256;73902;-85
2023/05/20 10:11:29;;;;;;;;;;;;;;;17.21;55.83;102587.44;107813;1254;67237;-83
2023/05/20 10:14:19;;;;;;;;;;;;;;;17.06;56.11;102592.52;107787;1254;72141;-85
2023/05/20 10:16:51;;;;;;;;;;;;;;;16.80;56.11;102593.73;107814;1254;61233;-84
2023/05/20 10:19:35;;;;;;;;;;;;;;;16.56;56.44;102593.20;107709;1254;124235;-89
2023/05/20 10:22:04;;;;;;;;;;;;;;;16.43;56.97;102593.14;107716;1254;75229;-85
2023/05/20 10:24:42;;;;;;;;;;;;;;;16.32;56.98;102596.20;107599;1256;124911;-84
2023/05/20 10:27:10;;;;;;;;;;;;;;;16.08;57.30;102594.20;107598;1254;71255;-85
2023/05/20 10:29:55;;;;;;;;;;;;;;;15.95;57.67;102595.02;107685;1257;124498;-86
2023/05/20 10:32:29;;;;;;;;;;;;;;;15.86;58.02;102594.70;107639;1253;61157;-85
2023/05/20 10:35:00;;;;;;;;;;;;;;;15.79;58.21;102592.73;107743;1256;75158;-84
2023/05/20 10:37:44;;;;;;;;;;;;;;;15.81;58.58;102587.48;107715;1259;124184;-86
2023/05/20 10:40:12;;;;;;;;;;;;;;;15.95;58.68;102587.60;107787;1254;73156;-86
2023/05/20 10:42:43;;;;;;;;;;;;;;;16.04;58.40;102586.98;107440;1254;124680;-84
2023/05/20 10:45:10;;;;;;;;;;;;;;;16.15;58.42;102581.67;107691;1254;61198;-84
2023/05/20 10:47:54;;;;;;;;;;;;;;;16.30;58.24;102578.77;107471;1254;124319;-86
2023/05/20 10:50:28;;;;;;;;;;;;;;;16.43;58.14;102579.52;107560;1254;65616;-83
2023/05/20 10:53:02;;;;;;;;;;;;;;;16.42;57.78;102571.88;107452;1257;73127;-83
2023/05/20 10:55:34;;;;;;;;;;;;;;;16.48;57.94;102569.05;107557;1255;124299;-82
2023/05/20 10:58:04;;;;;;;;;;;;;;;16.66;57.98;102568.69;107496;1254;61311;-85
2023/05/20 11:00:40;;;;;;;;;;;;;;;16.96;57.80;102564.22;107476;1255;124318;-92
2023/05/20 11:03:11;;;;;;;;;;;;;;;17.22;57.63;102559.61;107493;1255;67050;-86
2023/05/20 11:05:38;;;;;;;;;;;;;;;17.38;57.23;102555.21;107494;1254;124941;-83
2023/05/20 11:08:06;;;;;;;;;;;;;;;17.42;56.90;102553.03;107781;1257;59597;-84
2023/05/20 11:10:36;;;;;;;;;;;;;;;17.37;56.40;102558.39;109088;1256;59064;-84
2023/05/20 11:13:03;;;;;;;;;;;;;;;17.32;56.61;102556.66;108990;1257;125481;-84
2023/05/20 11:15:37;;;;;;;;;;;;;;;17.29;56.41;102552.70;108901;1256;67055;-85
2023/05/20 11:18:04;;;;;;;;;;;;;;;17.24;56.50;102551.67;107632;1255;124562;-84
2023/05/20 11:20:34;;;;;;;;;;;;;;;17.28;56.64;102550.19;107643;1255;60110;-84
2023/05/20 11:23:11;;;;;;;;;;;;;;;17.38;56.46;102541.73;107456;1257;61733;-86
2023/05/20 11:25:39;;;;;;;;;;;;;;;17.57;56.67;102542.76;107495;1254;124234;-85
2023/05/20 11:28:15;;;;;;;;;;;;;;;17.79;56.58;102538.66;107409;1257;66878;-83
2023/05/20 11:30:42;;;;;;;;;;;;;;;18.13;56.35;102532.56;107532;1255;124278;-84
2023/05/20 11:33:11;;;;;;;;;;;;;;;18.29;55.93;102537.52;107701;1257;62067;-84
2023/05/20 11:35:43;;;;;;;;;;;;;;;18.39;55.76;102538.27;107649;1256;124255;-84
2023/05/20 11:38:16;;;;;;;;;;;;;;;18.37;55.29;102537.52;107655;1255;74654;-91
2023/05/20 11:40:53;;;;;;;;;;;;;;;18.40;55.52;102537.94;107228;1261;67649;-90
2023/05/20 11:43:20;;;;;;;;;;;;;;;18.44;55.19;102529.31;107521;1257;124249;-84
2023/05/20 11:45:51;;;;;;;;;;;;;;;18.40;55.12;102526.39;107583;1255;61313;-84
2023/05/20 11:48:24;;;;;;;;;;;;;;;18.39;55.08;102524.78;107419;1257;124711;-85
2023/05/20 11:50:55;;;;;;;;;;;;;;;18.43;55.15;102521.29;107538;1256;73897;-86
2023/05/20 11:53:23;;;;;;;;;;;;;;;18.49;54.75;102523.17;107453;1256;65814;-87
2023/05/20 11:55:51;;;;;;;;;;;;;;;18.48;54.69;102521.05;107464;1256;124058;-86
2023/05/20 11:58:19;;;;;;;;;;;;;;;18.53;54.75;102522.02;107493;1257;59287;-83
2023/05/20 12:00:46;;;;;;;;;;;;;;;18.53;54.50;102527.53;107572;1256;124207;-84
2023/05/20 12:03:13;;;;;;;;;;;;;;;18.42;54.40;102525.52;107806;1256;74495;-82
2023/05/20 12:05:40;;;;;;;;;;;;;;;18.15;54.28;102529.05;107688;1256;124299;-82
2023/05/20 12:08:07;;;;;;;;;;;;;;;17.84;54.20;102528.85;107573;1257;72096;-81
2023/05/20 12:10:38;;;;;;;;;;;;;;;17.55;54.58;102525.30;107516;1254;60533;-86
2023/05/20 12:13:09;;;;;;;;;;;;;;;17.25;54.88;102520.33;107489;1254;124267;-86
2023/05/20 12:15:38;;;;;;;;;;;;;;;17.03;55.42;102519.91;107457;1254;74485;-84
2023/05/20 12:18:05;;;;;;;;;;;;;;;16.91;55.68;102515.84;106987;1256;350222;-81
2023/05/20 12:20:33;;;;;;;;;;;;;;;16.78;55.86;102516.70;107851;1254;71396;-82
2023/05/20 12:23:01;;;;;;;;;;;;;;;16.70;56.02;102509.23;107385;1256;61358;-85
2023/05/20 12:25:30;;;;;;;;;;;;;;;16.68;56.22;102512.54;107490;1254;124321;-84
2023/05/20 12:28:03;;;;;;;;;;;;;;;16.69;56.45;102510.80;107827;1257;74640;-84
2023/05/20 12:30:30;;;;;;;;;;;;;;;16.76;56.45;102507.09;107843;1254;125042;-82
2023/05/20 12:33:05;;;;;;;;;;;;;;;16.76;56.42;102505.66;107990;1254;73208;-89
2023/05/20 12:35:35;;;;;;;;;;;;;;;16.75;56.42;102504.76;107861;1256;124266;-83
2023/05/20 12:38:02;;;;;;;;;;;;;;;16.81;56.57;102503.49;107810;1256;60904;-83
2023/05/20 12:40:29;;;;;;;;;;;;;;;16.83;56.43;102506.26;107648;1256;75238;-82
2023/05/20 12:42:57;;;;;;;;;;;;;;;16.81;56.44;102500.66;107856;1253;124150;-83
2023/05/20 12:45:24;;;;;;;;;;;;;;;16.81;56.41;102497.31;107862;1253;72716;-83
2023/05/20 12:47:53;;;;;;;;;;;;;;;16.77;56.41;102489.90;107716;1254;124249;-84
2023/05/20 12:50:20;;;;;;;;;;;;;;;16.72;56.50;102485.88;107656;1254;60000;-84
2023/05/20 12:52:47;;;;;;;;;;;;;;;16.73;56.58;102484.31;107589;1254;73687;-84